createdAt,value
2019-01-27T00:01:07.690Z,33.85
2019-01-27T00:02:33.131Z,33.48
2019-01-27T00:03:58.566Z,32.38
2019-01-27T00:05:24.255Z,32.63
2019-01-27T00:06:49.686Z,35.68
2019-01-27T00:08:15.135Z,33.73
2019-01-27T00:09:40.535Z,32.50
2019-01-27T00:11:06.186Z,35.20
2019-01-27T00:12:31.614Z,31.85
2019-01-27T00:13:57.045Z,30.97
2019-01-27T00:15:22.667Z,32.63
2019-01-27T00:16:48.411Z,31.33
2019-01-27T00:18:14.015Z,31.15
2019-01-27T00:19:39.447Z,32.80
2019-01-27T00:21:05.114Z,31.55
2019-01-27T00:22:30.570Z,32.10
2019-01-27T00:23:56.091Z,33.58
2019-01-27T00:25:21.506Z,35.28
2019-01-27T00:26:46.958Z,36.15
2019-01-27T00:28:12.540Z,34.65
2019-01-27T00:29:37.963Z,35.30
2019-01-27T00:31:03.519Z,36.70
2019-01-27T00:32:28.937Z,35.25
2019-01-27T00:33:54.372Z,33.98
2019-01-27T00:35:19.956Z,34.15
2019-01-27T00:36:45.495Z,33.90
2019-01-27T00:38:11.088Z,34.40
2019-01-27T00:39:36.519Z,37.53
2019-01-27T00:41:02.038Z,34.08
2019-01-27T00:42:27.466Z,37.88
2019-01-27T00:43:52.890Z,37.20
2019-01-27T00:45:18.814Z,36.45
2019-01-27T00:46:44.323Z,35.08
2019-01-27T00:48:10.167Z,34.30
2019-01-27T00:49:35.606Z,34.88
2019-01-27T00:51:01.144Z,36.48
2019-01-27T00:52:26.873Z,35.68
2019-01-27T00:53:52.310Z,33.92
2019-01-27T00:55:20.015Z,35.00
2019-01-27T00:56:45.458Z,30.20
2019-01-27T00:58:11.095Z,28.70
2019-01-27T00:59:36.511Z,27.73
2019-01-27T01:01:02.217Z,30.15
2019-01-27T01:02:27.676Z,26.50
2019-01-27T01:03:53.196Z,27.55
2019-01-27T01:05:19.020Z,28.30
2019-01-27T01:06:45.163Z,26.82
2019-01-27T01:08:11.199Z,30.43
2019-01-27T01:09:36.708Z,32.55
2019-01-27T01:11:02.136Z,33.48
2019-01-27T01:12:27.587Z,34.75
2019-01-27T01:13:53.116Z,35.75
2019-01-27T01:15:19.347Z,35.78
2019-01-27T01:16:44.767Z,37.65
2019-01-27T01:18:10.308Z,36.50
2019-01-27T01:19:35.836Z,39.98
2019-01-27T01:21:01.535Z,36.93
2019-01-27T01:22:26.990Z,37.13
2019-01-27T01:23:52.411Z,36.45
2019-01-27T01:25:20.640Z,36.58
2019-01-27T01:26:46.194Z,37.50
2019-01-27T01:28:11.719Z,36.40
2019-01-27T01:29:37.234Z,37.80
2019-01-27T01:31:02.858Z,36.20
2019-01-27T01:32:28.292Z,37.93
2019-01-27T01:33:53.719Z,36.30
2019-01-27T01:35:19.358Z,36.77
2019-01-27T01:36:44.963Z,35.52
2019-01-27T01:38:10.578Z,35.38
2019-01-27T01:39:36.064Z,33.70
2019-01-27T01:41:01.468Z,33.78
2019-01-27T01:42:26.980Z,34.08
2019-01-27T01:43:52.417Z,36.95
2019-01-27T01:45:23.314Z,33.25
2019-01-27T01:46:48.731Z,36.42
2019-01-27T01:48:14.370Z,33.45
2019-01-27T01:49:39.785Z,35.35
2019-01-27T01:51:05.422Z,34.30
2019-01-27T01:52:33.629Z,36.63
2019-01-27T01:53:59.058Z,35.45
2019-01-27T01:55:24.471Z,32.98
2019-01-27T01:56:49.895Z,33.10
2019-01-27T01:58:15.315Z,30.68
2019-01-27T01:59:40.730Z,31.90
2019-01-27T02:01:06.581Z,31.85
2019-01-27T02:02:31.991Z,32.38
2019-01-27T02:03:57.434Z,31.62
2019-01-27T02:05:23.065Z,31.73
2019-01-27T02:06:48.499Z,31.30
2019-01-27T02:08:13.926Z,31.17
2019-01-27T02:09:39.346Z,31.20
2019-01-27T02:11:05.175Z,29.85
2019-01-27T02:12:30.847Z,30.23
2019-01-27T02:13:56.435Z,27.98
2019-01-27T02:16:08.787Z,28.02
2019-01-27T02:17:34.196Z,28.02
2019-01-27T02:18:59.901Z,27.80
2019-01-27T02:20:25.334Z,28.42
2019-01-27T02:21:50.840Z,27.40
2019-01-27T02:23:17.115Z,27.98
2019-01-27T02:24:42.564Z,26.97
2019-01-27T02:26:08.950Z,26.77
2019-01-27T02:27:34.365Z,25.52
2019-01-27T02:28:59.826Z,23.80
2019-01-27T02:30:25.448Z,23.00
2019-01-27T02:31:51.011Z,22.67
2019-01-27T02:33:16.515Z,19.65
2019-01-27T02:34:41.971Z,21.68
2019-01-27T02:36:07.742Z,21.97
2019-01-27T02:37:33.164Z,20.90
2019-01-27T02:38:58.635Z,21.60
2019-01-27T02:40:24.092Z,21.80
2019-01-27T02:41:49.542Z,20.75
2019-01-27T02:43:15.154Z,21.90
2019-01-27T02:44:40.586Z,22.15
2019-01-27T02:46:06.779Z,21.48
2019-01-27T02:47:32.273Z,19.48
2019-01-27T02:48:57.880Z,20.57
2019-01-27T02:50:23.346Z,22.15
2019-01-27T02:51:48.787Z,20.80
2019-01-27T02:53:14.392Z,21.50
2019-01-27T02:54:39.820Z,21.30
2019-01-27T02:56:05.915Z,23.38
2019-01-27T02:57:31.330Z,21.40
2019-01-27T02:58:56.744Z,21.35
2019-01-27T03:00:22.982Z,23.02
2019-01-27T03:01:48.607Z,22.85
2019-01-27T03:03:14.151Z,22.40
2019-01-27T03:04:39.566Z,22.73
2019-01-27T03:06:25.131Z,21.30
2019-01-27T03:07:50.839Z,22.13
2019-01-27T03:09:21.442Z,22.87
2019-01-27T03:10:50.673Z,20.37
2019-01-27T03:12:16.268Z,21.70
2019-01-27T03:13:41.764Z,22.45
2019-01-27T03:15:08.552Z,20.55
2019-01-27T03:16:33.953Z,20.37
2019-01-27T03:17:59.404Z,23.45
2019-01-27T03:19:24.906Z,21.57
2019-01-27T03:20:50.357Z,21.87
2019-01-27T03:22:15.787Z,22.20
2019-01-27T03:23:41.325Z,21.87
2019-01-27T03:25:09.126Z,19.98
2019-01-27T03:26:34.571Z,21.50
2019-01-27T03:28:00.104Z,20.12
2019-01-27T03:29:25.586Z,22.00
2019-01-27T03:30:51.028Z,20.50
2019-01-27T03:32:16.502Z,19.92
2019-01-27T03:33:41.923Z,21.30
2019-01-27T03:35:08.528Z,19.87
2019-01-27T03:36:34.084Z,20.25
2019-01-27T03:37:59.639Z,19.25
2019-01-27T03:39:25.140Z,20.72
2019-01-27T03:40:50.594Z,19.95
2019-01-27T03:42:16.251Z,18.92
2019-01-27T03:43:41.860Z,19.37
2019-01-27T03:45:08.148Z,20.72
2019-01-27T03:46:33.635Z,19.95
2019-01-27T03:47:59.035Z,19.87
2019-01-27T03:49:24.489Z,19.67
2019-01-27T03:50:50.019Z,19.77
2019-01-27T03:52:15.558Z,18.62
2019-01-27T03:53:41.013Z,19.40
2019-01-27T03:55:09.276Z,18.25
2019-01-27T03:56:34.726Z,18.12
2019-01-27T03:58:00.394Z,18.92
2019-01-27T03:59:25.991Z,18.10
2019-01-27T04:00:51.437Z,18.65
2019-01-27T04:02:16.862Z,19.23
2019-01-27T04:03:42.304Z,17.52
2019-01-27T04:05:08.022Z,19.98
2019-01-27T04:06:33.557Z,18.20
2019-01-27T04:07:58.972Z,17.77
2019-01-27T04:09:24.399Z,18.90
2019-01-27T04:10:49.827Z,18.17
2019-01-27T04:12:15.374Z,18.70
2019-01-27T04:13:40.838Z,19.25
2019-01-27T04:15:07.058Z,19.15
2019-01-27T04:16:32.576Z,19.40
2019-01-27T04:17:58.022Z,18.60
2019-01-27T04:19:23.569Z,18.75
2019-01-27T04:20:49.073Z,17.98
2019-01-27T04:22:14.528Z,18.15
2019-01-27T04:23:39.979Z,17.60
2019-01-27T04:25:05.627Z,18.67
2019-01-27T04:26:31.123Z,18.07
2019-01-27T04:27:56.660Z,16.32
2019-01-27T04:29:22.071Z,15.28
2019-01-27T04:30:47.603Z,15.53
2019-01-27T04:32:13.062Z,15.38
2019-01-27T04:33:38.512Z,14.65
2019-01-27T04:35:04.225Z,14.68
2019-01-27T04:36:29.723Z,14.03
2019-01-27T04:37:55.281Z,15.72
2019-01-27T04:39:20.769Z,14.80
2019-01-27T04:40:46.195Z,14.95
2019-01-27T04:42:11.606Z,13.65
2019-01-27T04:43:37.058Z,12.47
2019-01-27T04:45:02.471Z,11.22
2019-01-27T04:46:27.958Z,12.78
2019-01-27T04:47:53.512Z,12.98
2019-01-27T04:49:18.956Z,12.55
2019-01-27T04:50:44.572Z,10.65
2019-01-27T04:52:10.065Z,9.88
2019-01-27T04:53:35.628Z,11.70
2019-01-27T04:55:01.036Z,12.70
2019-01-27T04:56:26.482Z,10.80
2019-01-27T04:57:51.908Z,10.78
2019-01-27T04:59:17.393Z,11.38
2019-01-27T05:00:42.988Z,11.03
2019-01-27T05:02:08.515Z,11.63
2019-01-27T05:04:11.282Z,9.73
2019-01-27T05:05:36.881Z,10.32
2019-01-27T05:07:02.417Z,9.28
2019-01-27T05:08:31.793Z,10.25
2019-01-27T05:10:04.153Z,8.98
2019-01-27T05:11:29.954Z,10.30
2019-01-27T05:12:55.562Z,9.73
2019-01-27T05:14:21.015Z,9.65
2019-01-27T05:15:46.479Z,9.60
2019-01-27T05:17:15.938Z,10.10
2019-01-27T05:18:41.426Z,9.85
2019-01-27T05:20:08.166Z,8.88
2019-01-27T05:21:34.406Z,10.35
2019-01-27T05:23:00.109Z,10.10
2019-01-27T05:24:25.698Z,10.45
2019-01-27T05:25:51.111Z,10.85
2019-01-27T05:27:16.622Z,9.90
2019-01-27T05:28:42.152Z,10.60
2019-01-27T05:30:10.836Z,11.88
2019-01-27T05:31:36.434Z,11.48
2019-01-27T05:33:01.851Z,11.38
2019-01-27T05:34:27.280Z,9.85
2019-01-27T05:35:52.750Z,10.63
2019-01-27T05:37:18.258Z,8.73
2019-01-27T05:38:43.754Z,10.15
2019-01-27T05:40:10.586Z,9.80
2019-01-27T05:41:36.099Z,9.90
2019-01-27T05:43:01.602Z,9.78
2019-01-27T05:44:27.168Z,10.20
2019-01-27T05:45:52.613Z,10.32
2019-01-27T05:47:18.217Z,9.35
2019-01-27T05:48:43.627Z,10.28
2019-01-27T05:50:11.160Z,9.85
2019-01-27T05:51:36.609Z,10.63
2019-01-27T05:53:02.132Z,8.75
2019-01-27T05:54:27.628Z,9.08
2019-01-27T05:55:53.099Z,9.50
2019-01-27T05:57:18.592Z,9.33
2019-01-27T05:58:44.097Z,8.15
2019-01-27T06:00:17.546Z,8.33
2019-01-27T06:01:42.952Z,7.37
2019-01-27T06:03:08.393Z,7.25
2019-01-27T06:04:33.892Z,7.42
2019-01-27T06:05:59.344Z,7.65
2019-01-27T06:07:24.807Z,7.35
2019-01-27T06:08:50.412Z,8.63
2019-01-27T06:10:15.935Z,8.13
2019-01-27T06:11:41.519Z,8.85
2019-01-27T06:13:06.919Z,8.83
2019-01-27T06:14:32.438Z,9.15
2019-01-27T06:15:57.875Z,9.13
2019-01-27T06:17:23.288Z,9.28
2019-01-27T06:18:48.691Z,9.83
2019-01-27T06:20:14.616Z,9.40
2019-01-27T06:21:40.054Z,9.63
2019-01-27T06:23:05.759Z,8.93
2019-01-27T06:24:31.471Z,7.58
2019-01-27T06:25:56.991Z,8.05
2019-01-27T06:27:22.408Z,8.20
2019-01-27T06:28:47.809Z,7.75
2019-01-27T06:30:16.455Z,8.00
2019-01-27T06:31:41.907Z,7.62
2019-01-27T06:33:29.074Z,7.55
2019-01-27T06:34:54.579Z,7.05
2019-01-27T06:36:20.026Z,8.50
2019-01-27T06:37:45.739Z,7.97
2019-01-27T06:39:11.195Z,9.68
2019-01-27T06:40:36.804Z,9.05
2019-01-27T06:42:02.260Z,9.78
2019-01-27T06:43:27.823Z,11.28
2019-01-27T06:44:53.328Z,12.65
2019-01-27T06:46:18.749Z,10.90
2019-01-27T06:47:44.319Z,10.72
2019-01-27T06:49:09.823Z,10.95
2019-01-27T06:50:35.339Z,11.53
2019-01-27T06:52:00.790Z,10.98
2019-01-27T06:53:26.335Z,10.98
2019-01-27T06:54:55.083Z,10.45
2019-01-27T06:56:20.571Z,10.18
2019-01-27T06:57:46.104Z,10.48
2019-01-27T06:59:24.721Z,10.03
2019-01-27T07:00:54.552Z,10.43
2019-01-27T07:02:38.822Z,10.55
2019-01-27T07:04:18.319Z,9.85
2019-01-27T07:06:04.482Z,10.90
2019-01-27T07:07:58.378Z,10.30
2019-01-27T07:09:45.947Z,10.05
2019-01-27T07:11:23.263Z,9.68
2019-01-27T07:13:17.154Z,10.28
2019-01-27T07:15:15.646Z,9.43
2019-01-27T07:17:17.938Z,9.80
2019-01-27T07:19:13.869Z,8.30
2019-01-27T07:20:50.586Z,8.23
2019-01-27T07:22:26.939Z,7.55
2019-01-27T07:24:08.726Z,9.70
2019-01-27T07:25:43.526Z,8.28
2019-01-27T07:27:54.451Z,9.35
2019-01-27T07:30:04.992Z,9.13
2019-01-27T07:31:59.815Z,9.23
2019-01-27T07:33:52.792Z,9.95
2019-01-27T07:35:36.924Z,10.32
2019-01-27T07:37:19.698Z,10.13
2019-01-27T07:38:56.328Z,10.30
2019-01-27T07:40:55.872Z,10.43
2019-01-27T07:42:34.603Z,9.55
2019-01-27T07:44:30.824Z,9.10
2019-01-27T07:46:02.330Z,9.33
2019-01-27T07:47:40.311Z,9.55
2019-01-27T07:49:40.379Z,9.03
2019-01-27T07:51:26.980Z,9.63
2019-01-27T07:53:14.026Z,8.88
2019-01-27T07:54:57.271Z,8.80
2019-01-27T07:56:53.575Z,9.53
2019-01-27T07:58:53.151Z,8.88
2019-01-27T08:00:58.112Z,10.10
2019-01-27T08:02:42.391Z,9.30
2019-01-27T08:04:26.191Z,8.48
2019-01-27T08:06:16.424Z,9.60
2019-01-27T08:08:06.975Z,7.72
2019-01-27T08:09:59.924Z,8.60
2019-01-27T08:12:03.168Z,10.20
2019-01-27T08:13:37.786Z,9.43
2019-01-27T08:15:20.859Z,10.25
2019-01-27T08:43:37.416Z,12.73
2019-01-27T08:51:28.254Z,17.70
2019-01-27T08:53:11.511Z,15.80
2019-01-27T08:54:43.515Z,14.80
2019-01-27T08:56:13.743Z,14.68
2019-01-27T08:57:39.697Z,15.20
2019-01-27T08:59:07.036Z,14.55
2019-01-27T09:00:37.332Z,15.03
2019-01-27T09:04:25.077Z,15.43
2019-01-27T09:06:21.302Z,16.25
2019-01-27T09:07:56.851Z,16.37
2019-01-27T09:09:53.223Z,15.80
2019-01-27T09:13:41.613Z,15.75
2019-01-27T09:17:44.395Z,16.05
2019-01-27T09:19:39.726Z,15.32
2019-01-27T09:22:03.145Z,15.68
2019-01-27T09:23:50.419Z,14.85
2019-01-27T09:25:44.312Z,15.15
2019-01-27T09:27:51.431Z,15.23
2019-01-27T09:29:41.246Z,15.95
2019-01-27T09:31:28.822Z,15.20
2019-01-27T09:33:15.684Z,16.80
2019-01-27T09:35:02.744Z,16.17
2019-01-27T09:36:53.303Z,16.52
2019-01-27T09:38:40.360Z,15.43
2019-01-27T09:40:19.380Z,16.37
2019-01-27T09:42:06.413Z,15.95
2019-01-27T09:43:56.551Z,15.43
2019-01-27T09:45:37.519Z,15.25
2019-01-27T09:47:12.855Z,14.30
2019-01-27T09:48:47.573Z,14.07
2019-01-27T09:50:40.951Z,12.80
2019-01-27T09:52:21.062Z,14.65
2019-01-27T09:54:17.187Z,16.27
2019-01-27T09:56:07.274Z,14.18
2019-01-27T09:58:03.799Z,16.75
2019-01-27T09:59:56.051Z,15.88
2019-01-27T10:01:46.104Z,15.23
2019-01-27T10:03:33.935Z,15.38
2019-01-27T10:05:17.391Z,16.97
2019-01-27T10:07:13.517Z,15.28
2019-01-27T10:08:48.336Z,17.40
2019-01-27T10:10:34.529Z,16.90
2019-01-27T10:12:21.553Z,16.10
2019-01-27T10:14:24.268Z,15.98
2019-01-27T10:16:06.927Z,17.45
2019-01-27T10:17:51.226Z,15.85
2019-01-27T10:19:23.938Z,16.40
2019-01-27T10:21:11.396Z,16.60
2019-01-27T10:22:54.111Z,17.07
2019-01-27T10:24:37.020Z,16.02
2019-01-27T10:26:24.076Z,14.95
2019-01-27T10:28:07.748Z,13.85
2019-01-27T10:29:52.671Z,17.07
2019-01-27T10:31:33.434Z,15.08
2019-01-27T10:33:17.779Z,15.08
2019-01-27T10:35:17.502Z,15.90
2019-01-27T10:37:03.330Z,15.85
2019-01-27T10:38:50.437Z,16.93
2019-01-27T10:40:39.865Z,15.32
2019-01-27T10:42:21.021Z,14.90
2019-01-27T10:44:04.208Z,14.53
2019-01-27T10:45:41.670Z,15.88
2019-01-27T10:47:29.103Z,15.45
2019-01-27T10:49:04.362Z,15.45
2019-01-27T10:50:50.434Z,15.10
2019-01-27T10:52:37.941Z,16.17
2019-01-27T10:54:11.871Z,15.65
2019-01-27T10:55:43.889Z,15.15
2019-01-27T10:57:28.135Z,15.30
2019-01-27T10:59:01.364Z,14.00
2019-01-27T11:00:51.671Z,16.12
2019-01-27T11:02:25.858Z,14.60
2019-01-27T11:04:08.976Z,15.08
2019-01-27T11:05:52.069Z,14.80
2019-01-27T11:07:36.383Z,14.45
2019-01-27T11:09:19.713Z,15.43
2019-01-27T11:10:57.139Z,13.95
2019-01-27T11:12:53.416Z,13.58
2019-01-27T11:14:50.105Z,14.85
2019-01-27T11:16:37.287Z,13.35
2019-01-27T11:18:43.523Z,14.90
2019-01-27T11:20:28.641Z,13.70
2019-01-27T11:22:13.910Z,13.22
2019-01-27T11:24:00.841Z,14.45
2019-01-27T11:26:03.272Z,12.40
2019-01-27T11:27:50.093Z,12.80
2019-01-27T11:29:34.745Z,12.40
2019-01-27T11:31:37.487Z,13.20
2019-01-27T11:33:20.149Z,14.00
2019-01-27T11:35:02.971Z,11.60
2019-01-27T11:36:46.385Z,11.80
2019-01-27T11:38:29.160Z,12.97
2019-01-27T11:40:12.521Z,11.43
2019-01-27T11:41:55.494Z,11.67
2019-01-27T11:43:30.593Z,11.68
2019-01-27T11:45:26.934Z,12.00
2019-01-27T11:47:11.392Z,11.93
2019-01-27T11:48:45.108Z,10.60
2019-01-27T11:50:44.586Z,10.50
2019-01-27T11:52:34.931Z,11.60
2019-01-27T11:54:00.344Z,11.80
2019-01-27T11:55:27.997Z,12.30
2019-01-27T11:56:53.772Z,11.40
2019-01-27T11:58:19.246Z,11.67
2019-01-27T11:59:44.624Z,11.67
2019-01-27T12:01:10.620Z,13.17
2019-01-27T12:02:36.078Z,12.37
2019-01-27T12:04:01.535Z,23.63
2019-01-27T12:05:28.922Z,17.67
2019-01-27T12:06:54.767Z,15.53
2019-01-27T12:08:20.175Z,12.13
2019-01-27T12:09:45.608Z,16.15
2019-01-27T12:11:11.357Z,19.30
2019-01-27T12:12:36.864Z,19.00
2019-01-27T12:14:02.461Z,14.90
2019-01-27T12:15:28.246Z,13.47
2019-01-27T12:16:53.757Z,12.63
2019-01-27T12:18:19.416Z,11.67
2019-01-27T12:19:45.023Z,11.93
2019-01-27T12:21:10.673Z,15.83
2019-01-27T12:22:36.340Z,15.33
2019-01-27T12:24:01.929Z,8.50
2019-01-27T12:25:27.589Z,10.63
2019-01-27T12:26:53.197Z,8.17
2019-01-27T12:28:18.779Z,7.60
2019-01-27T12:29:44.204Z,7.13
2019-01-27T12:31:09.729Z,9.03
2019-01-27T12:32:35.156Z,7.27
2019-01-27T12:34:00.776Z,6.67
2019-01-27T12:35:28.634Z,9.10
2019-01-27T12:36:54.302Z,8.40
2019-01-27T12:38:19.971Z,7.77
2019-01-27T12:39:45.407Z,7.30
2019-01-27T12:41:11.150Z,7.60
2019-01-27T12:42:36.664Z,8.57
2019-01-27T12:44:02.439Z,6.00
2019-01-27T12:45:27.924Z,5.47
2019-01-27T12:46:53.521Z,5.70
2019-01-27T12:48:18.928Z,7.10
2019-01-27T12:49:44.332Z,7.17
2019-01-27T12:51:09.991Z,6.58
2019-01-27T12:52:35.757Z,6.17
2019-01-27T12:54:01.307Z,5.30
2019-01-27T12:55:27.036Z,4.55
2019-01-27T12:56:52.524Z,5.00
2019-01-27T12:58:18.300Z,4.58
2019-01-27T12:59:43.862Z,5.97
2019-01-27T13:01:12.201Z,4.73
2019-01-27T13:02:37.649Z,5.47
2019-01-27T13:04:03.224Z,5.60
2019-01-27T13:05:28.640Z,4.90
2019-01-27T13:06:54.170Z,6.17
2019-01-27T13:08:19.747Z,5.30
2019-01-27T13:09:45.187Z,8.23
2019-01-27T13:11:10.731Z,6.67
2019-01-27T13:12:40.658Z,5.90
2019-01-27T13:14:06.247Z,6.27
2019-01-27T13:15:40.865Z,5.73
2019-01-27T13:17:07.631Z,5.07
2019-01-27T13:18:33.704Z,4.83
2019-01-27T13:19:59.617Z,5.27
2019-01-27T13:21:25.031Z,5.40
2019-01-27T13:22:50.696Z,4.87
2019-01-27T13:24:16.149Z,6.67
2019-01-27T13:25:41.718Z,6.03
2019-01-27T13:27:07.154Z,4.90
2019-01-27T13:28:32.823Z,5.07
2019-01-27T13:30:01.246Z,5.13
2019-01-27T13:31:27.120Z,4.50
2019-01-27T13:32:52.781Z,5.23
2019-01-27T13:34:18.354Z,4.70
2019-01-27T13:35:43.907Z,4.27
2019-01-27T13:37:11.278Z,5.07
2019-01-27T13:38:37.081Z,5.23
2019-01-27T13:40:02.711Z,4.53
2019-01-27T13:41:28.387Z,4.97
2019-01-27T13:42:54.166Z,4.13
2019-01-27T13:44:19.658Z,4.17
2019-01-27T13:45:45.180Z,4.33
2019-01-27T13:47:10.651Z,5.07
2019-01-27T13:48:36.381Z,4.07
2019-01-27T13:50:02.099Z,3.73
2019-01-27T13:51:27.907Z,3.20
2019-01-27T13:52:53.533Z,4.30
2019-01-27T13:54:19.029Z,4.07
2019-01-27T13:55:44.559Z,3.80
2019-01-27T13:57:14.647Z,4.10
2019-01-27T13:58:40.059Z,6.57
2019-01-27T14:00:25.644Z,5.47
2019-01-27T14:01:51.232Z,4.70
2019-01-27T14:03:16.792Z,5.60
2019-01-27T14:04:48.404Z,7.97
2019-01-27T14:06:09.687Z,7.13
2019-01-27T14:07:35.196Z,6.90
2019-01-27T14:09:00.765Z,7.37
2019-01-27T14:10:27.627Z,5.60
2019-01-27T14:11:53.609Z,7.43
2019-01-27T14:13:19.150Z,5.20
2019-01-27T14:14:44.830Z,5.13
2019-01-27T14:16:10.351Z,6.23
2019-01-27T14:17:35.887Z,4.10
2019-01-27T14:19:01.592Z,6.60
2019-01-27T14:20:27.141Z,5.13
2019-01-27T14:21:52.640Z,4.60
2019-01-27T14:23:18.084Z,4.60
2019-01-27T14:24:43.755Z,5.67
2019-01-27T14:26:09.239Z,5.47
2019-01-27T14:27:34.860Z,5.67
2019-01-27T14:29:00.335Z,4.63
2019-01-27T14:30:28.391Z,6.20
2019-01-27T14:31:53.999Z,6.40
2019-01-27T14:33:19.494Z,5.17
2019-01-27T14:34:45.125Z,5.50
2019-01-27T14:36:10.575Z,6.63
2019-01-27T14:37:36.235Z,5.93
2019-01-27T14:39:01.763Z,4.60
2019-01-27T14:40:28.751Z,7.50
2019-01-27T14:41:54.327Z,6.80
2019-01-27T14:43:19.751Z,6.30
2019-01-27T14:44:45.308Z,7.57
2019-01-27T14:46:29.878Z,6.30
2019-01-27T14:47:55.638Z,6.63
2019-01-27T14:49:21.139Z,8.97
2019-01-27T14:50:48.604Z,7.70
2019-01-27T14:52:14.092Z,6.70
2019-01-27T14:53:39.550Z,7.40
2019-01-27T14:55:05.982Z,6.87
2019-01-27T14:56:31.558Z,8.50
2019-01-27T14:57:57.940Z,6.10
2019-01-27T14:59:24.283Z,6.40
2019-01-27T15:00:49.836Z,7.07
2019-01-27T15:02:15.363Z,7.20
2019-01-27T15:03:40.935Z,6.80
2019-01-27T15:05:08.429Z,7.57
2019-01-27T15:06:34.178Z,6.20
2019-01-27T15:08:00.336Z,7.20
2019-01-27T15:09:25.892Z,6.63
2019-01-27T15:10:51.539Z,7.40
2019-01-27T15:12:17.043Z,7.07
2019-01-27T15:13:42.550Z,8.60
2019-01-27T15:15:10.347Z,6.40
2019-01-27T15:16:35.778Z,7.00
2019-01-27T15:18:01.357Z,6.90
2019-01-27T15:19:26.865Z,6.73
2019-01-27T15:20:56.466Z,7.80
2019-01-27T15:22:22.046Z,7.63
2019-01-27T15:23:47.508Z,7.80
2019-01-27T15:25:12.948Z,8.50
2019-01-27T15:26:38.409Z,7.47
2019-01-27T15:28:03.871Z,7.20
2019-01-27T15:29:29.334Z,6.80
2019-01-27T15:30:54.775Z,6.77
2019-01-27T15:32:20.375Z,7.90
2019-01-27T15:33:45.919Z,7.30
2019-01-27T15:35:13.601Z,9.60
2019-01-27T15:36:38.841Z,7.70
2019-01-27T15:38:04.501Z,8.30
2019-01-27T15:39:29.962Z,7.67
2019-01-27T15:40:55.735Z,7.93
2019-01-27T15:42:21.307Z,8.17
2019-01-27T15:43:48.702Z,7.47
2019-01-27T15:45:16.884Z,9.08
2019-01-27T15:46:42.419Z,9.67
2019-01-27T15:48:08.117Z,8.17
2019-01-27T15:49:33.723Z,8.03
2019-01-27T15:50:59.727Z,7.67
2019-01-27T15:52:25.532Z,8.60
2019-01-27T15:53:51.056Z,9.33
2019-01-27T15:55:17.736Z,7.67
2019-01-27T15:56:43.181Z,7.53
2019-01-27T15:58:08.832Z,8.20
2019-01-27T15:59:35.978Z,8.37
2019-01-27T16:01:01.754Z,7.97
2019-01-27T16:02:27.216Z,9.03
2019-01-27T16:03:52.695Z,7.70
2019-01-27T16:05:19.871Z,9.67
2019-01-27T16:06:46.081Z,7.50
2019-01-27T16:08:11.781Z,8.20
2019-01-27T16:09:37.192Z,7.13
2019-01-27T16:11:02.862Z,7.57
2019-01-27T16:12:28.498Z,8.97
2019-01-27T16:13:54.172Z,8.53
2019-01-27T16:15:22.709Z,8.20
2019-01-27T16:16:48.396Z,9.40
2019-01-27T16:18:14.063Z,19.30
2019-01-27T16:19:39.660Z,15.13
2019-01-27T16:21:05.344Z,11.67
2019-01-27T16:22:30.780Z,8.70
2019-01-27T16:23:58.847Z,9.37
2019-01-27T16:25:24.309Z,9.93
2019-01-27T16:26:49.948Z,8.47
2019-01-27T16:28:15.596Z,9.03
2019-01-27T16:29:55.998Z,9.63
2019-01-27T16:31:40.259Z,9.57
2019-01-27T16:33:09.505Z,5.10
2019-01-27T16:34:41.765Z,3.47
2019-01-27T16:36:07.303Z,3.60
2019-01-27T16:37:32.999Z,3.70
2019-01-27T16:38:58.602Z,4.23
2019-01-27T16:40:24.194Z,3.60
2019-01-27T16:41:49.721Z,4.10
2019-01-27T16:43:15.192Z,4.07
2019-01-27T16:44:40.651Z,3.83
2019-01-27T16:46:06.315Z,3.43
2019-01-27T16:47:31.763Z,3.57
2019-01-27T16:48:57.284Z,4.10
2019-01-27T16:50:23.007Z,3.53
2019-01-27T16:51:49.383Z,3.43
2019-01-27T16:53:15.299Z,3.30
2019-01-27T16:54:40.798Z,4.27
2019-01-27T16:56:06.778Z,3.53
2019-01-27T16:57:32.215Z,4.00
2019-01-27T16:58:59.471Z,4.10
2019-01-27T17:00:27.423Z,3.93
2019-01-27T17:01:53.025Z,4.90
2019-01-27T17:03:18.728Z,3.13
2019-01-27T17:04:44.197Z,3.93
2019-01-27T17:06:09.863Z,3.80
2019-01-27T17:07:35.365Z,3.53
2019-01-27T17:09:00.799Z,3.30
2019-01-27T17:10:26.806Z,3.33
2019-01-27T17:11:52.295Z,3.80
2019-01-27T17:13:17.915Z,3.13
2019-01-27T17:14:43.386Z,3.40
2019-01-27T17:16:09.579Z,4.07
2019-01-27T17:17:35.038Z,4.70
2019-01-27T17:19:00.507Z,3.87
2019-01-27T17:20:26.345Z,3.97
2019-01-27T17:21:51.837Z,4.00
2019-01-27T17:23:17.345Z,3.20
2019-01-27T17:24:42.804Z,4.80
2019-01-27T17:26:08.374Z,5.80
2019-01-27T17:27:33.973Z,3.47
2019-01-27T17:28:59.469Z,5.03
2019-01-27T17:30:25.153Z,4.60
2019-01-27T17:31:50.835Z,2.90
2019-01-27T17:33:16.593Z,5.60
2019-01-27T17:34:42.024Z,5.73
2019-01-27T17:36:08.710Z,3.90
2019-01-27T17:37:34.212Z,4.50
2019-01-27T17:38:59.842Z,3.20
2019-01-27T17:40:38.736Z,4.33
2019-01-27T17:42:19.031Z,3.30
2019-01-27T17:43:50.101Z,4.47
2019-01-27T17:45:16.886Z,4.83
2019-01-27T17:46:42.386Z,4.20
2019-01-27T17:48:08.143Z,3.50
2019-01-27T17:49:33.600Z,3.67
2019-01-27T17:50:59.192Z,4.03
2019-01-27T17:52:24.647Z,7.47
2019-01-27T17:54:00.825Z,5.80
2019-01-27T17:55:43.096Z,4.40
2019-01-27T17:57:30.312Z,3.77
2019-01-27T17:59:23.632Z,3.40
2019-01-27T18:01:06.779Z,5.60
2019-01-27T18:02:43.507Z,3.70
2019-01-27T18:04:26.536Z,3.90
2019-01-27T18:06:06.583Z,4.17
2019-01-27T18:07:53.695Z,3.33
2019-01-27T18:09:40.579Z,4.07
2019-01-27T18:11:26.843Z,3.07
2019-01-27T18:13:09.857Z,3.50
2019-01-27T18:14:37.857Z,4.00
2019-01-27T18:16:04.602Z,3.77
2019-01-27T18:17:30.070Z,3.67
2019-01-27T18:18:55.591Z,4.17
2019-01-27T18:20:21.022Z,4.50
2019-01-27T18:21:46.478Z,3.70
2019-01-27T18:23:12.051Z,5.43
2019-01-27T18:24:37.534Z,4.83
2019-01-27T18:26:03.059Z,6.27
2019-01-27T18:27:28.632Z,5.72
2019-01-27T18:28:54.180Z,4.57
2019-01-27T18:30:22.588Z,4.50
2019-01-27T18:31:48.186Z,5.37
2019-01-27T18:33:13.755Z,6.07
2019-01-27T18:34:39.410Z,5.37
2019-01-27T18:36:05.724Z,5.13
2019-01-27T18:37:31.161Z,6.15
2019-01-27T18:38:56.623Z,5.67
2019-01-27T18:40:22.498Z,6.17
2019-01-27T18:41:48.043Z,5.17
2019-01-27T18:43:13.832Z,4.40
2019-01-27T18:44:39.792Z,4.87
2019-01-27T18:46:05.369Z,5.70
2019-01-27T18:47:31.039Z,4.97
2019-01-27T18:48:56.564Z,6.40
2019-01-27T18:50:22.314Z,8.30
2019-01-27T18:51:47.894Z,6.50
2019-01-27T18:53:35.516Z,7.00
2019-01-27T18:55:20.164Z,5.25
2019-01-27T18:57:04.412Z,4.77
2019-01-27T18:58:57.851Z,5.03
2019-01-27T19:00:37.267Z,5.20
2019-01-27T19:02:15.555Z,4.92
2019-01-27T19:03:59.084Z,4.37
2019-01-27T19:05:30.650Z,4.30
2019-01-27T19:07:13.921Z,4.72
2019-01-27T19:08:57.839Z,5.12
2019-01-27T19:10:33.078Z,5.17
2019-01-27T19:12:15.225Z,5.47
2019-01-27T19:14:17.850Z,4.60
2019-01-27T19:16:04.881Z,4.35
2019-01-27T19:18:10.887Z,4.60
2019-01-27T19:19:53.843Z,4.03
2019-01-27T19:21:44.416Z,5.03
2019-01-27T19:23:20.207Z,4.37
2019-01-27T19:25:02.113Z,4.37
2019-01-27T19:26:52.422Z,4.65
2019-01-27T19:28:30.055Z,3.77
2019-01-27T19:30:14.590Z,3.90
2019-01-27T19:31:58.940Z,3.70
2019-01-27T19:33:41.943Z,4.20
2019-01-27T19:35:27.225Z,5.03
2019-01-27T19:37:09.888Z,5.75
2019-01-27T19:39:04.974Z,4.58
2019-01-27T19:40:58.491Z,4.40
2019-01-27T19:42:39.380Z,6.80
2019-01-27T19:44:24.039Z,6.60
2019-01-27T19:46:00.805Z,6.62
2019-01-27T19:47:45.091Z,6.67
2019-01-27T19:49:28.449Z,4.70
2019-01-27T19:51:02.471Z,5.28
2019-01-27T19:52:52.379Z,4.90
2019-01-27T19:54:39.419Z,5.40
2019-01-27T19:56:22.875Z,5.97
2019-01-27T19:58:19.344Z,4.70
2019-01-27T20:00:06.583Z,7.70
2019-01-27T20:01:54.074Z,7.70
2019-01-27T20:03:47.264Z,5.20
2019-01-27T20:05:28.155Z,5.10
2019-01-27T20:07:29.074Z,5.50
2019-01-27T20:09:19.606Z,4.30
2019-01-27T20:11:02.677Z,5.53
2019-01-27T20:12:59.051Z,4.30
2019-01-27T20:14:42.231Z,3.87
2019-01-27T20:16:35.924Z,3.73
2019-01-27T20:18:20.604Z,4.40
2019-01-27T20:20:03.706Z,3.83
2019-01-27T20:21:53.471Z,3.80
2019-01-27T20:23:39.448Z,4.30
2019-01-27T20:25:26.988Z,3.50
2019-01-27T20:27:11.003Z,3.90
2019-01-27T20:28:54.019Z,4.30
2019-01-27T20:30:26.900Z,4.80
2019-01-27T20:32:24.662Z,4.20
2019-01-27T20:34:11.746Z,4.50
2019-01-27T20:35:47.497Z,4.30
2019-01-27T20:37:24.994Z,4.83
2019-01-27T20:39:09.318Z,5.17
2019-01-27T20:41:10.009Z,5.33